createdAt,value
2016-03-19T00:00:43.642Z,992.78
2016-03-19T00:01:43.645Z,992.82
2016-03-19T00:02:43.647Z,992.76
2016-03-19T00:03:43.650Z,992.78
2016-03-19T00:04:43.637Z,992.77
2016-03-19T00:05:43.624Z,992.82
2016-03-19T00:06:43.627Z,992.8
2016-03-19T00:07:43.613Z,992.85
2016-03-19T00:08:43.616Z,992.85
2016-03-19T00:09:43.619Z,992.81
2016-03-19T00:10:43.622Z,992.8
2016-03-19T00:11:43.608Z,992.8
2016-03-19T00:12:43.611Z,992.87
2016-03-19T00:13:43.599Z,992.78
2016-03-19T00:14:43.601Z,992.91
2016-03-19T00:15:43.588Z,992.89
2016-03-19T00:16:43.591Z,992.9
2016-03-19T00:17:43.577Z,992.84
2016-03-19T00:18:43.581Z,992.84
2016-03-19T00:19:43.583Z,992.87
2016-03-19T00:20:43.571Z,992.87
2016-03-19T00:21:43.573Z,992.9
2016-03-19T00:22:43.576Z,992.87
2016-03-19T00:23:43.563Z,992.9
2016-03-19T00:24:43.566Z,992.91
2016-03-19T00:25:43.553Z,992.94
2016-03-19T00:26:43.556Z,992.95
2016-03-19T00:27:43.543Z,992.97
2016-03-19T00:28:43.545Z,993
2016-03-19T00:29:43.548Z,992.96
2016-03-19T00:30:43.535Z,993.03
2016-03-19T00:31:43.538Z,992.99
2016-03-19T00:32:43.525Z,993.05
2016-03-19T00:33:43.559Z,993.1
2016-03-19T00:34:43.531Z,993.06
2016-03-19T00:35:43.517Z,993.06
2016-03-19T00:36:43.520Z,993.05
2016-03-19T00:37:43.506Z,993.11
2016-03-19T00:38:43.510Z,993.09
2016-03-19T00:39:43.512Z,993.11
2016-03-19T00:40:43.500Z,993.09
2016-03-19T00:41:43.502Z,993.15
2016-03-19T00:42:43.489Z,993.13
2016-03-19T00:43:43.491Z,993.16
2016-03-19T00:44:43.480Z,993.18
2016-03-19T00:45:43.483Z,993.19
2016-03-19T00:46:43.485Z,993.18
2016-03-19T00:47:43.488Z,993.22
2016-03-19T00:48:43.474Z,993.18
2016-03-19T00:49:43.461Z,993.21
2016-03-19T00:50:43.464Z,993.19
2016-03-19T00:51:43.467Z,993.19
2016-03-19T00:52:43.454Z,993.22
2016-03-19T00:53:43.457Z,993.23
2016-03-19T00:54:43.460Z,993.21
2016-03-19T00:55:43.446Z,993.24
2016-03-19T00:56:43.449Z,993.27
2016-03-19T00:57:43.436Z,993.26
2016-03-19T00:58:43.438Z,993.22
2016-03-19T00:59:43.441Z,993.26
2016-03-19T01:00:43.429Z,993.26
2016-03-19T01:01:43.415Z,993.26
2016-03-19T01:02:43.418Z,993.24
2016-03-19T01:03:43.420Z,993.3
2016-03-19T01:04:43.409Z,993.26
2016-03-19T01:05:43.411Z,993.26
2016-03-19T01:06:43.414Z,993.29
2016-03-19T01:07:43.401Z,993.31
2016-03-19T01:08:43.394Z,993.32
2016-03-19T01:09:43.371Z,993.3
2016-03-19T01:10:43.365Z,993.3
2016-03-19T01:11:43.343Z,993.3
2016-03-19T01:12:43.336Z,993.31
2016-03-19T01:13:43.318Z,993.27
2016-03-19T01:14:43.317Z,993.29
2016-03-19T01:15:43.317Z,993.32
2016-03-19T01:16:43.300Z,993.29
2016-03-19T01:17:43.299Z,993.23
2016-03-19T01:18:43.300Z,993.26
2016-03-19T01:19:43.287Z,993.22
2016-03-19T01:20:43.272Z,993.17
2016-03-19T01:21:43.274Z,993.2
2016-03-19T01:22:43.261Z,993.18
2016-03-19T01:23:43.263Z,993.16
2016-03-19T01:24:43.265Z,993.19
2016-03-19T01:25:43.252Z,993.12
2016-03-19T01:26:43.254Z,993.13
2016-03-19T01:27:43.240Z,993.15
2016-03-19T01:28:43.243Z,993.12
2016-03-19T01:29:43.231Z,993.12
2016-03-19T01:30:43.234Z,993.11
2016-03-19T01:31:43.236Z,993.08
2016-03-19T01:32:43.222Z,993.04
2016-03-19T01:33:43.225Z,993.03
2016-03-19T01:34:43.212Z,993.01
2016-03-19T01:35:43.215Z,992.99
2016-03-19T01:36:43.218Z,992.99
2016-03-19T01:37:43.205Z,992.98
2016-03-19T01:38:43.208Z,992.97
2016-03-19T01:39:43.210Z,992.92
2016-03-19T01:40:43.197Z,992.95
2016-03-19T01:41:43.185Z,992.97
2016-03-19T01:42:43.202Z,992.89
2016-03-19T01:43:43.190Z,992.91
2016-03-19T01:44:43.176Z,992.89
2016-03-19T01:45:43.164Z,992.83
2016-03-19T01:46:43.166Z,992.93
2016-03-19T01:47:43.169Z,992.88
2016-03-19T01:48:43.157Z,992.87
2016-03-19T01:49:43.143Z,992.9
2016-03-19T01:50:43.146Z,992.89
2016-03-19T01:51:43.148Z,992.86
2016-03-19T01:52:43.136Z,992.86
2016-03-19T01:53:43.138Z,992.83
2016-03-19T01:54:43.141Z,992.84
2016-03-19T01:55:43.143Z,992.88
2016-03-19T01:56:43.131Z,992.85
2016-03-19T01:57:43.118Z,992.87
2016-03-19T01:58:43.120Z,992.83
2016-03-19T01:59:43.109Z,992.86
2016-03-19T02:00:43.095Z,992.85
2016-03-19T02:01:43.098Z,992.85
2016-03-19T02:02:43.100Z,992.84
2016-03-19T02:03:43.087Z,992.84
2016-03-19T02:04:43.090Z,992.82
2016-03-19T02:05:43.093Z,992.76
2016-03-19T02:06:43.080Z,992.81
2016-03-19T02:07:43.082Z,992.81
2016-03-19T02:08:43.070Z,992.76
2016-03-19T02:09:43.072Z,992.81
2016-03-19T02:10:43.059Z,992.77
2016-03-19T02:11:43.062Z,992.79
2016-03-19T02:12:43.049Z,992.73
2016-03-19T02:13:43.052Z,992.71
2016-03-19T02:14:43.038Z,992.72
2016-03-19T02:15:43.042Z,992.71
2016-03-19T02:16:43.044Z,992.69
2016-03-19T02:17:43.031Z,992.65
2016-03-19T02:18:43.034Z,992.66
2016-03-19T02:19:43.021Z,992.66
2016-03-19T02:20:43.007Z,992.63
2016-03-19T02:21:43.010Z,992.66
2016-03-19T02:22:42.998Z,992.66
2016-03-19T02:23:43.001Z,992.67
2016-03-19T02:24:43.003Z,992.64
2016-03-19T02:25:42.990Z,992.67
2016-03-19T02:26:42.993Z,992.62
2016-03-19T02:27:42.996Z,992.64
2016-03-19T02:28:42.982Z,992.67
2016-03-19T02:29:42.969Z,992.68
2016-03-19T02:30:42.972Z,992.67
2016-03-19T02:31:42.959Z,992.7
2016-03-19T02:32:42.962Z,992.65
2016-03-19T02:33:42.950Z,992.67
2016-03-19T02:34:42.953Z,992.65
2016-03-19T02:35:42.955Z,992.62
2016-03-19T02:36:42.941Z,992.6
2016-03-19T02:37:42.944Z,992.62
2016-03-19T02:38:42.931Z,992.61
2016-03-19T02:39:42.934Z,992.59
2016-03-19T02:40:42.921Z,992.62
2016-03-19T02:41:42.924Z,992.61
2016-03-19T02:42:42.911Z,992.66
2016-03-19T02:43:42.898Z,992.69
2016-03-19T02:44:42.900Z,992.68
2016-03-19T02:45:42.903Z,992.67
2016-03-19T02:46:42.891Z,992.7
2016-03-19T02:47:42.893Z,992.71
2016-03-19T02:48:42.880Z,992.71
2016-03-19T02:49:42.883Z,992.7
2016-03-19T02:50:42.871Z,992.71
2016-03-19T02:51:42.873Z,992.74
2016-03-19T02:52:42.859Z,992.75
2016-03-19T02:53:42.862Z,992.75
2016-03-19T02:54:42.849Z,992.73
2016-03-19T02:55:42.852Z,992.75
2016-03-19T02:56:42.839Z,992.76
2016-03-19T02:57:42.842Z,992.71
2016-03-19T02:58:42.829Z,992.78
2016-03-19T02:59:42.831Z,992.78
2016-03-19T03:00:42.835Z,992.8
2016-03-19T03:01:42.821Z,992.8
2016-03-19T03:02:42.809Z,992.82
2016-03-19T03:03:42.811Z,992.79
2016-03-19T03:04:42.814Z,992.76
2016-03-19T03:05:42.801Z,992.81
2016-03-19T03:06:42.788Z,992.81
2016-03-19T03:07:42.791Z,992.83
2016-03-19T03:08:42.778Z,992.82
2016-03-19T03:09:42.780Z,992.78
2016-03-19T03:10:42.783Z,992.79
2016-03-19T03:11:42.770Z,992.8
2016-03-19T03:12:42.758Z,992.81
2016-03-19T03:13:42.760Z,992.81
2016-03-19T03:14:42.762Z,992.83
2016-03-19T03:15:42.749Z,992.85
2016-03-19T03:16:42.752Z,992.83
2016-03-19T03:17:42.739Z,992.88
2016-03-19T03:18:42.741Z,992.89
2016-03-19T03:19:42.745Z,992.94
2016-03-19T03:20:42.732Z,992.93
2016-03-19T03:21:42.718Z,992.86
2016-03-19T03:22:42.721Z,992.9
2016-03-19T03:23:42.709Z,992.94
2016-03-19T03:24:42.727Z,992.94
2016-03-19T03:25:42.698Z,992.96
2016-03-19T03:26:42.701Z,992.95
2016-03-19T03:27:42.688Z,992.89
2016-03-19T03:28:42.690Z,992.88
2016-03-19T03:29:42.678Z,992.93
2016-03-19T03:30:42.696Z,992.91
2016-03-19T03:31:42.668Z,992.93
2016-03-19T03:32:42.655Z,992.9
2016-03-19T03:33:42.657Z,992.89
2016-03-19T03:34:42.645Z,992.86
2016-03-19T03:35:42.647Z,992.9
2016-03-19T03:36:42.634Z,992.87
2016-03-19T03:37:42.637Z,992.88
2016-03-19T03:38:42.625Z,992.89
2016-03-19T03:39:42.627Z,992.92
2016-03-19T03:40:42.614Z,992.92
2016-03-19T03:41:42.617Z,992.89
2016-03-19T03:42:42.604Z,992.89
2016-03-19T03:43:42.606Z,992.87
2016-03-19T03:44:42.593Z,992.91
2016-03-19T03:45:42.596Z,992.93
2016-03-19T03:46:42.583Z,992.92
2016-03-19T03:47:42.585Z,992.9
2016-03-19T03:48:42.588Z,992.93
2016-03-19T03:49:42.559Z,992.92
2016-03-19T03:50:42.563Z,992.95
2016-03-19T03:51:42.549Z,992.91
2016-03-19T03:52:42.552Z,992.94
2016-03-19T03:53:42.540Z,992.97
2016-03-19T03:54:42.542Z,992.98
2016-03-19T03:55:42.545Z,992.95
2016-03-19T03:56:42.531Z,993
2016-03-19T03:57:42.519Z,993.04
2016-03-19T03:58:42.521Z,993
2016-03-19T03:59:42.508Z,992.96
2016-03-19T04:00:42.511Z,992.95
2016-03-19T04:01:42.498Z,992.98
2016-03-19T04:02:42.501Z,992.99
2016-03-19T04:03:42.487Z,992.97
2016-03-19T04:04:42.491Z,992.96
2016-03-19T04:05:42.478Z,993
2016-03-19T04:06:42.464Z,993
2016-03-19T04:07:42.467Z,993.03
2016-03-19T04:08:42.455Z,993.03
2016-03-19T04:09:42.458Z,993.01
2016-03-19T04:10:42.460Z,992.99
2016-03-19T04:11:42.447Z,992.99
2016-03-19T04:12:42.449Z,992.99
2016-03-19T04:13:42.437Z,993.02
2016-03-19T04:14:42.424Z,992.98
2016-03-19T04:15:42.427Z,993.06
2016-03-19T04:16:42.414Z,993.04
2016-03-19T04:17:42.416Z,993.01
2016-03-19T04:18:42.403Z,992.99
2016-03-19T04:19:42.406Z,993.01
2016-03-19T04:20:42.409Z,992.98
2016-03-19T04:21:42.396Z,993
2016-03-19T04:22:42.382Z,992.99
2016-03-19T04:23:42.385Z,993.03
2016-03-19T04:24:42.373Z,993.04
2016-03-19T04:25:42.359Z,993.04
2016-03-19T04:26:42.363Z,993.05
2016-03-19T04:27:42.365Z,993.09
2016-03-19T04:28:42.352Z,993.07
2016-03-19T04:29:42.339Z,993.08
2016-03-19T04:30:42.342Z,993.08
2016-03-19T04:31:42.345Z,993.09
2016-03-19T04:32:42.331Z,993.09
2016-03-19T04:33:42.334Z,993.12
2016-03-19T04:34:42.352Z,993.15
2016-03-19T04:35:42.309Z,993.23
2016-03-19T04:36:42.311Z,993.25
2016-03-19T04:37:42.298Z,993.26
2016-03-19T04:38:42.301Z,993.26
2016-03-19T04:39:42.288Z,993.26
2016-03-19T04:40:42.291Z,993.27
2016-03-19T04:41:42.277Z,993.24
2016-03-19T04:42:42.281Z,993.25
2016-03-19T04:43:42.283Z,993.22
2016-03-19T04:44:42.255Z,993.19
2016-03-19T04:45:42.272Z,993.19
2016-03-19T04:46:42.244Z,993.15
2016-03-19T04:47:42.247Z,993.13
2016-03-19T04:48:42.233Z,993.2
2016-03-19T04:49:42.237Z,993.21
2016-03-19T04:50:42.224Z,993.24
2016-03-19T04:51:42.227Z,993.25
2016-03-19T04:52:42.213Z,993.22
2016-03-19T04:53:42.216Z,993.2
2016-03-19T04:54:42.204Z,993.22
2016-03-19T04:55:42.206Z,993.2
2016-03-19T04:56:42.193Z,993.22
2016-03-19T04:57:42.196Z,993.23
2016-03-19T04:58:42.182Z,993.19
2016-03-19T04:59:42.185Z,993.19
2016-03-19T05:00:42.173Z,993.16
2016-03-19T05:01:42.176Z,993.19
2016-03-19T05:02:42.163Z,993.1
2016-03-19T05:03:42.149Z,993.13
2016-03-19T05:04:42.151Z,993.14
2016-03-19T05:05:42.140Z,993.17
2016-03-19T05:06:42.142Z,993.18
2016-03-19T05:07:42.128Z,993.19
2016-03-19T05:08:42.131Z,993.17
2016-03-19T05:09:42.119Z,993.17
2016-03-19T05:10:42.122Z,993.14
2016-03-19T05:11:42.108Z,993.12
2016-03-19T05:12:42.112Z,993.11
2016-03-19T05:13:42.098Z,993.14
2016-03-19T05:14:42.101Z,993.12
2016-03-19T05:15:42.088Z,993.11
2016-03-19T05:16:42.075Z,993.13
2016-03-19T05:17:42.077Z,993.08
2016-03-19T05:18:42.080Z,993.09
2016-03-19T05:19:42.066Z,993.12
2016-03-19T05:20:42.055Z,993.15
2016-03-19T05:21:42.057Z,993.13
2016-03-19T05:22:42.044Z,993.2
2016-03-19T05:23:42.046Z,993.18
2016-03-19T05:24:42.035Z,993.22
2016-03-19T05:25:42.037Z,993.22
2016-03-19T05:26:42.023Z,993.27
2016-03-19T05:27:42.027Z,993.24
2016-03-19T05:28:42.029Z,993.28
2016-03-19T05:29:42.032Z,993.28
2016-03-19T05:30:42.003Z,993.32
2016-03-19T05:31:42.006Z,993.33
2016-03-19T05:32:41.993Z,993.38
2016-03-19T05:33:41.979Z,993.36
2016-03-19T05:34:41.983Z,993.4
2016-03-19T05:35:41.970Z,993.41
2016-03-19T05:36:41.973Z,993.41
2016-03-19T05:37:41.959Z,993.44
2016-03-19T05:38:41.962Z,993.49
2016-03-19T05:39:41.950Z,993.55
2016-03-19T05:40:41.952Z,993.61
2016-03-19T05:41:41.939Z,993.6
2016-03-19T05:42:41.941Z,993.63
2016-03-19T05:43:41.929Z,993.67
2016-03-19T05:44:41.931Z,993.68
2016-03-19T05:45:41.919Z,993.67
2016-03-19T05:46:41.922Z,993.71
2016-03-19T05:47:41.908Z,993.69
2016-03-19T05:48:41.911Z,993.72
2016-03-19T05:49:41.897Z,993.75
2016-03-19T05:50:41.886Z,993.75
2016-03-19T05:51:41.888Z,993.71
2016-03-19T05:52:41.875Z,993.7
2016-03-19T05:53:41.877Z,993.7
2016-03-19T05:54:41.865Z,993.74
2016-03-19T05:55:41.852Z,993.68
2016-03-19T05:56:41.854Z,993.72
2016-03-19T05:57:41.841Z,993.76
2016-03-19T05:58:41.844Z,993.79
2016-03-19T05:59:41.832Z,993.71
2016-03-19T06:00:41.834Z,993.75
2016-03-19T06:01:41.820Z,993.73
2016-03-19T06:02:41.808Z,993.74
2016-03-19T06:03:41.810Z,993.75
2016-03-19T06:04:41.798Z,993.81
2016-03-19T06:05:41.800Z,993.77
2016-03-19T06:06:41.787Z,993.75
2016-03-19T06:07:41.790Z,993.76
2016-03-19T06:08:41.777Z,993.75
2016-03-19T06:09:41.781Z,993.77
2016-03-19T06:10:41.767Z,993.82
2016-03-19T06:11:41.769Z,993.77
2016-03-19T06:12:41.757Z,993.85
2016-03-19T06:13:41.744Z,993.85
2016-03-19T06:14:41.747Z,993.82
2016-03-19T06:15:41.733Z,993.81
2016-03-19T06:16:41.736Z,993.82
2016-03-19T06:17:41.739Z,993.83
2016-03-19T06:18:41.725Z,993.87
2016-03-19T06:19:41.728Z,993.88
2016-03-19T06:20:41.716Z,993.91
2016-03-19T06:21:41.719Z,993.89
2016-03-19T06:22:41.705Z,993.95
2016-03-19T06:23:41.708Z,993.91
2016-03-19T06:24:41.695Z,993.96
2016-03-19T06:25:41.699Z,993.94
2016-03-19T06:26:41.685Z,993.98
2016-03-19T06:27:41.671Z,994.02
2016-03-19T06:28:41.674Z,994.03
2016-03-19T06:29:41.662Z,994.05
2016-03-19T06:30:41.652Z,994.07
2016-03-19T06:31:41.654Z,994.06
2016-03-19T06:32:41.657Z,994.08
2016-03-19T06:33:41.644Z,994.11
2016-03-19T06:34:41.646Z,994.11
2016-03-19T06:35:41.634Z,994.14
2016-03-19T06:36:41.621Z,994.17
2016-03-19T06:37:41.623Z,994.1
2016-03-19T06:38:41.626Z,994.1
2016-03-19T06:39:41.628Z,994.12
2016-03-19T06:40:41.648Z,994.17
2016-03-19T06:41:41.603Z,994.14
2016-03-19T06:42:41.590Z,994.15
2016-03-19T06:43:41.593Z,994.15
2016-03-19T06:44:41.580Z,994.17
2016-03-19T06:45:41.583Z,994.16
2016-03-19T06:46:41.585Z,994.19
2016-03-19T06:47:41.573Z,994.17
2016-03-19T06:48:41.559Z,994.15
2016-03-19T06:49:41.562Z,994.18
2016-03-19T06:50:41.564Z,994.14
2016-03-19T06:51:41.552Z,994.19
2016-03-19T06:52:41.555Z,994.17
2016-03-19T06:53:41.541Z,994.19
2016-03-19T06:54:41.544Z,994.18
2016-03-19T06:55:41.532Z,994.19
2016-03-19T06:56:41.518Z,994.21
2016-03-19T06:57:41.521Z,994.19
2016-03-19T06:58:41.524Z,994.21
2016-03-19T06:59:41.511Z,994.19
2016-03-19T07:00:41.513Z,994.2
2016-03-19T07:01:41.501Z,994.24
2016-03-19T07:02:41.503Z,994.25
2016-03-19T07:03:41.491Z,994.25
2016-03-19T07:04:41.493Z,994.32
2016-03-19T07:05:41.496Z,994.3
2016-03-19T07:06:41.483Z,994.28
2016-03-19T07:07:41.470Z,994.29
2016-03-19T07:08:41.473Z,994.29
2016-03-19T07:09:41.460Z,994.26
2016-03-19T07:10:41.462Z,994.27
2016-03-19T07:11:41.450Z,994.26
2016-03-19T07:12:41.452Z,994.29
2016-03-19T07:13:41.455Z,994.31
2016-03-19T07:14:41.442Z,994.29
2016-03-19T07:15:41.428Z,994.33
2016-03-19T07:16:41.432Z,994.32
2016-03-19T07:17:41.434Z,994.3
2016-03-19T07:18:41.422Z,994.32
2016-03-19T07:19:41.424Z,994.36
2016-03-19T07:20:41.411Z,994.34
2016-03-19T07:21:41.414Z,994.4
2016-03-19T07:22:41.401Z,994.4
2016-03-19T07:23:41.403Z,994.4
2016-03-19T07:24:41.406Z,994.38
2016-03-19T07:25:41.394Z,994.41
2016-03-19T07:26:41.396Z,994.4
2016-03-19T07:27:41.414Z,994.4
2016-03-19T07:28:41.386Z,994.38
2016-03-19T07:29:41.389Z,994.3
2016-03-19T07:30:41.376Z,994.34
2016-03-19T07:31:41.363Z,994.34
2016-03-19T07:32:41.366Z,994.31
2016-03-19T07:33:41.368Z,994.34
2016-03-19T07:34:41.355Z,994.33
2016-03-19T07:35:41.358Z,994.37
2016-03-19T07:36:41.345Z,994.35
2016-03-19T07:37:41.348Z,994.37
2016-03-19T07:38:41.335Z,994.36
2016-03-19T07:39:41.337Z,994.39
2016-03-19T07:40:41.324Z,994.39
2016-03-19T07:41:41.326Z,994.35
2016-03-19T07:42:41.330Z,994.34
2016-03-19T07:43:41.317Z,994.4
2016-03-19T07:44:41.304Z,994.39
2016-03-19T07:45:41.306Z,994.39
2016-03-19T07:46:41.309Z,994.44
2016-03-19T07:47:41.297Z,994.4
2016-03-19T07:48:41.299Z,994.46
2016-03-19T07:49:41.302Z,994.41
2016-03-19T07:50:41.289Z,994.43
2016-03-19T07:51:41.276Z,994.45
2016-03-19T07:52:41.278Z,994.44
2016-03-19T07:53:41.266Z,994.47
2016-03-19T07:54:41.268Z,994.45
2016-03-19T07:55:41.271Z,994.49
2016-03-19T07:56:41.257Z,994.5
2016-03-19T07:57:41.260Z,994.5
2016-03-19T07:58:41.247Z,994.5
2016-03-19T07:59:41.250Z,994.52
2016-03-19T08:00:41.252Z,994.48
2016-03-19T08:01:41.240Z,994.55
2016-03-19T08:02:41.243Z,994.53
2016-03-19T08:03:41.229Z,994.51
2016-03-19T08:04:41.233Z,994.54
2016-03-19T08:05:41.220Z,994.52
2016-03-19T08:06:41.223Z,994.55
2016-03-19T08:07:41.209Z,994.53
2016-03-19T08:08:41.212Z,994.56
2016-03-19T08:09:41.214Z,994.56
2016-03-19T08:10:41.201Z,994.57
2016-03-19T08:11:41.204Z,994.59
2016-03-19T08:12:41.192Z,994.6
2016-03-19T08:13:41.195Z,994.59
2016-03-19T08:14:41.198Z,994.67
2016-03-19T08:15:41.184Z,994.65
2016-03-19T08:16:41.187Z,994.69
2016-03-19T08:17:41.173Z,994.7
2016-03-19T08:18:41.176Z,994.7
2016-03-19T08:19:41.164Z,994.7
2016-03-19T08:20:41.167Z,994.73
2016-03-19T08:21:41.153Z,994.72
2016-03-19T08:22:41.156Z,994.78
2016-03-19T08:23:41.159Z,994.79
2016-03-19T08:24:41.161Z,994.78
2016-03-19T08:25:41.149Z,994.77
2016-03-19T08:26:41.152Z,994.77
2016-03-19T08:27:41.139Z,994.81
2016-03-19T08:28:41.141Z,994.81
2016-03-19T08:29:41.127Z,994.8
2016-03-19T08:30:41.130Z,994.8
2016-03-19T08:31:41.118Z,994.83
2016-03-19T08:32:41.121Z,994.86
2016-03-19T08:33:41.124Z,994.85
2016-03-19T08:34:41.111Z,994.83
2016-03-19T08:35:41.113Z,994.89
2016-03-19T08:36:41.099Z,994.9
2016-03-19T08:37:41.102Z,994.88
2016-03-19T08:38:41.105Z,994.92
2016-03-19T08:39:41.092Z,994.99
2016-03-19T08:40:41.095Z,994.99
2016-03-19T08:41:41.082Z,994.97
2016-03-19T08:42:41.085Z,994.99
2016-03-19T08:43:41.087Z,994.96
2016-03-19T08:44:41.075Z,994.96
2016-03-19T08:45:41.062Z,994.98
2016-03-19T08:46:41.080Z,995
2016-03-19T08:47:41.067Z,995.02
2016-03-19T08:48:41.053Z,995.03
2016-03-19T08:49:41.057Z,994.97
2016-03-19T08:50:41.044Z,994.99
2016-03-19T08:51:41.046Z,994.95
2016-03-19T08:52:41.034Z,994.95
2016-03-19T08:53:41.036Z,995
2016-03-19T08:54:41.039Z,994.96
2016-03-19T08:55:41.041Z,994.96
2016-03-19T08:56:41.029Z,994.96
2016-03-19T08:57:41.031Z,995.01
2016-03-19T08:58:41.018Z,995.02
2016-03-19T08:59:41.006Z,995.03
2016-03-19T09:00:41.008Z,995.02
2016-03-19T09:01:40.996Z,995.05
2016-03-19T09:02:40.998Z,995
2016-03-19T09:03:41.001Z,994.99
2016-03-19T09:04:40.988Z,994.95
2016-03-19T09:05:40.990Z,994.97
2016-03-19T09:06:40.978Z,995.02
2016-03-19T09:07:40.980Z,994.98
2016-03-19T09:08:40.983Z,995
2016-03-19T09:09:40.970Z,994.98
2016-03-19T09:10:40.973Z,994.97
2016-03-19T09:11:40.959Z,994.97
2016-03-19T09:12:40.962Z,994.97
2016-03-19T09:13:40.964Z,995.03
2016-03-19T09:14:40.952Z,994.96
2016-03-19T09:15:40.954Z,994.96
2016-03-19T09:16:40.942Z,994.98
2016-03-19T09:17:40.945Z,994.98
2016-03-19T09:18:40.947Z,994.97
2016-03-19T09:19:40.934Z,994.94
2016-03-19T09:20:40.936Z,994.91
2016-03-19T09:21:40.925Z,994.97
2016-03-19T09:22:40.927Z,994.97
2016-03-19T09:23:40.930Z,994.94
2016-03-19T09:24:40.916Z,994.94
2016-03-19T09:25:40.919Z,994.94
2016-03-19T09:26:40.922Z,994.96
2016-03-19T09:27:40.924Z,994.99
2016-03-19T09:28:40.911Z,994.96
2016-03-19T09:29:40.899Z,995.05
2016-03-19T09:30:40.917Z,995.01
2016-03-19T09:31:40.904Z,995
2016-03-19T09:32:40.891Z,995.05
2016-03-19T09:33:40.894Z,995.09
2016-03-19T09:34:40.896Z,995.05
2016-03-19T09:35:40.899Z,995.06
2016-03-19T09:36:40.886Z,995.07
2016-03-19T09:37:40.874Z,995.05
2016-03-19T09:38:40.891Z,995
2016-03-19T09:39:40.863Z,994.99
2016-03-19T09:40:40.866Z,994.98
2016-03-19T09:41:40.868Z,995.01
2016-03-19T09:42:40.856Z,994.98
2016-03-19T09:43:40.859Z,994.98
2016-03-19T09:44:40.876Z,995.01
2016-03-19T09:45:40.848Z,995.01
2016-03-19T09:46:40.850Z,995.01
2016-03-19T09:47:40.870Z,994.95
2016-03-19T09:48:40.840Z,994.93
2016-03-19T09:49:40.843Z,994.95
2016-03-19T09:50:40.846Z,994.96
2016-03-19T09:51:40.833Z,994.97
2016-03-19T09:52:40.836Z,995
2016-03-19T09:53:40.838Z,995.02
2016-03-19T09:54:40.825Z,995.07
2016-03-19T09:55:40.828Z,995.07
2016-03-19T09:56:40.814Z,995.12
2016-03-19T09:57:40.802Z,995.07
2016-03-19T09:58:53.555Z,995.12
2016-03-19T09:59:40.808Z,995.12
2016-03-19T10:00:40.811Z,995.12
2016-03-19T10:01:40.813Z,995.11
2016-03-19T10:02:53.550Z,995.11
2016-03-19T10:03:40.787Z,995.09
2016-03-19T10:04:40.805Z,995.07
2016-03-19T10:05:40.808Z,995.08
2016-03-19T10:06:40.796Z,995.1
2016-03-19T10:07:40.782Z,995.09
2016-03-19T10:08:40.816Z,995.08
2016-03-19T10:09:40.771Z,995.11
2016-03-19T10:10:40.790Z,995.08
2016-03-19T10:11:40.793Z,995.06
2016-03-19T10:12:40.765Z,995.04
2016-03-19T10:13:40.783Z,995.05
2016-03-19T10:14:40.756Z,995.08
2016-03-19T10:15:40.758Z,995.07
2016-03-19T10:16:40.730Z,995.04
2016-03-19T10:17:40.701Z,995.06
2016-03-19T10:18:40.687Z,995.04
2016-03-19T10:19:40.684Z,995.06
2016-03-19T10:20:40.681Z,995.03
2016-03-19T10:21:40.648Z,995.06
2016-03-19T10:22:40.660Z,995.01
2016-03-19T10:23:40.642Z,995.03
2016-03-19T10:24:40.642Z,995.05
2016-03-19T10:25:40.627Z,995.07
2016-03-19T10:26:40.613Z,995.1
2016-03-19T10:27:40.614Z,995.11
2016-03-19T10:28:40.599Z,995.09
2016-03-19T10:29:40.616Z,995.1
2016-03-19T10:30:40.618Z,995.09
2016-03-19T10:31:40.604Z,995.1
2016-03-19T10:32:40.606Z,995.11
2016-03-19T10:33:40.608Z,995.07
2016-03-19T10:34:40.595Z,995.11
2016-03-19T10:35:40.597Z,995.11
2016-03-19T10:36:40.568Z,995.1
2016-03-19T10:37:40.554Z,995.09
2016-03-19T10:38:40.573Z,995.13
2016-03-19T10:39:40.559Z,995.07
2016-03-19T10:40:40.562Z,995.11
2016-03-19T10:41:40.564Z,995.09
2016-03-19T10:42:40.552Z,995.11
2016-03-19T10:43:40.555Z,995.09
2016-03-19T10:44:40.558Z,995.1
2016-03-19T10:45:40.545Z,995.05
2016-03-19T10:46:40.547Z,995.04
2016-03-19T10:47:40.550Z,995.05
2016-03-19T10:48:40.537Z,995.04
2016-03-19T10:49:40.524Z,995.05
2016-03-19T10:50:40.527Z,995.05
2016-03-19T10:51:40.529Z,995.06
2016-03-19T10:52:40.516Z,995.03
2016-03-19T10:53:40.519Z,995.06
2016-03-19T10:54:40.522Z,995.01
2016-03-19T10:55:40.510Z,995.01
2016-03-19T10:56:40.512Z,994.98
2016-03-19T10:57:40.515Z,995.01
2016-03-19T10:58:40.501Z,995
2016-03-19T10:59:40.488Z,995.01
2016-03-19T11:00:40.491Z,994.98
2016-03-19T11:01:40.493Z,994.96
2016-03-19T11:02:40.496Z,994.95
2016-03-19T11:03:40.484Z,994.95
2016-03-19T11:04:40.486Z,994.95
2016-03-19T11:05:40.489Z,994.96
2016-03-19T11:06:40.476Z,994.99
2016-03-19T11:07:40.478Z,994.96
2016-03-19T11:08:40.481Z,994.95
2016-03-19T11:09:40.469Z,994.97
2016-03-19T11:10:40.472Z,994.98
2016-03-19T11:11:40.474Z,995.02
2016-03-19T11:12:40.461Z,994.96
2016-03-19T11:13:40.480Z,994.98
2016-03-19T11:14:40.450Z,994.94
2016-03-19T11:15:40.453Z,994.92
2016-03-19T11:16:40.456Z,994.96
2016-03-19T11:17:40.458Z,994.98
2016-03-19T11:18:40.461Z,995.01
2016-03-19T11:19:40.448Z,994.96
2016-03-19T11:20:40.436Z,994.97
2016-03-19T11:21:40.438Z,994.99
2016-03-19T11:22:40.441Z,994.93
2016-03-19T11:23:40.427Z,994.92
2016-03-19T11:24:40.430Z,994.91
2016-03-19T11:25:40.433Z,994.84
2016-03-19T11:26:40.435Z,994.86
2016-03-19T11:27:40.424Z,994.86
2016-03-19T11:28:40.426Z,994.85
2016-03-19T11:29:40.429Z,994.86
2016-03-19T11:30:40.415Z,994.9
2016-03-19T11:31:40.418Z,994.9
2016-03-19T11:32:40.436Z,994.87
2016-03-19T11:33:40.408Z,994.88
2016-03-19T11:34:40.411Z,994.9
2016-03-19T11:35:40.414Z,994.88
2016-03-19T11:36:40.401Z,994.84
2016-03-19T11:37:40.404Z,994.87
2016-03-19T11:38:40.422Z,994.89
2016-03-19T11:39:40.409Z,994.86
2016-03-19T11:40:40.395Z,994.88
2016-03-19T11:41:40.398Z,994.88
2016-03-19T11:42:40.385Z,994.86
2016-03-19T11:43:40.388Z,994.82
2016-03-19T11:44:40.390Z,994.86
2016-03-19T11:45:40.393Z,994.8
2016-03-19T11:46:40.381Z,994.82
2016-03-19T11:47:40.399Z,994.87
2016-03-19T11:48:40.386Z,994.8
2016-03-19T11:49:40.389Z,994.78
2016-03-19T11:50:40.375Z,994.83
2016-03-19T11:51:40.377Z,994.83
2016-03-19T11:52:40.366Z,994.75
2016-03-19T11:53:40.368Z,994.74
2016-03-19T11:54:40.371Z,994.74
2016-03-19T11:55:40.357Z,994.77
2016-03-19T11:56:40.376Z,994.8
2016-03-19T11:57:40.363Z,994.77
2016-03-19T11:58:40.350Z,994.79
2016-03-19T11:59:40.353Z,994.79
2016-03-19T12:00:40.356Z,994.79
2016-03-19T12:01:40.342Z,994.79
2016-03-19T12:02:40.346Z,994.79
2016-03-19T12:03:40.348Z,994.81
2016-03-19T12:04:40.351Z,994.79
2016-03-19T12:05:40.337Z,994.76
2016-03-19T12:06:40.340Z,994.77
2016-03-19T12:07:40.343Z,994.76
2016-03-19T12:08:40.330Z,994.72
2016-03-19T12:09:40.333Z,994.73
2016-03-19T12:10:40.336Z,994.69
2016-03-19T12:11:40.323Z,994.77
2016-03-19T12:12:40.342Z,994.73
2016-03-19T12:13:40.328Z,994.7
2016-03-19T12:14:40.331Z,994.7
2016-03-19T12:15:40.333Z,994.74
2016-03-19T12:16:40.383Z,994.76
2016-03-19T12:17:40.369Z,994.73
2016-03-19T12:18:40.389Z,994.71
2016-03-19T12:19:40.328Z,994.64
2016-03-19T12:20:40.316Z,994.63
2016-03-19T12:21:40.318Z,994.63
2016-03-19T12:22:40.321Z,994.65
2016-03-19T12:23:40.324Z,994.62
2016-03-19T12:24:40.327Z,994.61
2016-03-19T12:25:40.313Z,994.61
2016-03-19T12:26:40.315Z,994.62
2016-03-19T12:27:40.319Z,994.59
2016-03-19T12:28:40.321Z,994.62
2016-03-19T12:29:40.309Z,994.66
2016-03-19T12:30:40.312Z,994.65
2016-03-19T12:31:40.314Z,994.65
2016-03-19T12:32:40.317Z,994.63